createdAt,value
2023-11-02T00:01:36.281Z,99668.78
2023-11-02T00:04:05.670Z,99675.72
2023-11-02T00:06:35.510Z,99668.78
2023-11-02T00:09:09.977Z,99667.13
2023-11-02T00:11:46.678Z,99658.44
2023-11-02T00:14:16.639Z,99654.13
2023-11-02T00:16:46.001Z,99646.25
2023-11-02T00:19:33.138Z,99653.19
2023-11-02T00:22:07.373Z,99659.28
2023-11-02T00:24:36.394Z,99649.78
2023-11-02T00:27:03.922Z,99648.16
2023-11-02T00:29:33.056Z,99633.47
2023-11-02T00:32:02.191Z,99631.75
2023-11-02T00:34:35.918Z,99631.81
2023-11-02T00:37:02.604Z,99628.28
2023-11-02T00:39:30.061Z,99621.31
2023-11-02T00:41:56.808Z,99625.66
2023-11-02T00:44:26.905Z,99617.75
2023-11-02T00:46:56.340Z,99621.09
2023-11-02T00:49:23.665Z,99612.44
2023-11-02T00:51:56.687Z,99617.63
2023-11-02T00:54:37.682Z,99608.13
2023-11-02T00:57:06.389Z,99598.50
2023-11-02T00:59:38.119Z,99594.13
2023-11-02T01:02:06.835Z,99595.00
2023-11-02T01:05:01.861Z,99596.69
2023-11-02T01:07:30.151Z,99607.84
2023-11-02T01:10:00.368Z,99606.00
2023-11-02T01:12:37.843Z,99602.34
2023-11-02T01:15:09.696Z,99596.22
2023-11-02T01:17:37.747Z,99596.22
2023-11-02T01:20:07.515Z,99588.41
2023-11-02T01:22:53.970Z,99594.44
2023-11-02T01:25:21.096Z,99598.81
2023-11-02T01:27:52.283Z,99594.53
2023-11-02T01:30:19.816Z,99600.56
2023-11-02T01:32:48.865Z,99607.31
2023-11-02T01:35:33.866Z,99603.06
2023-11-02T01:38:00.570Z,99606.47
2023-11-02T01:40:32.215Z,99603.78
2023-11-02T01:42:59.332Z,99603.72
2023-11-02T01:45:26.519Z,99601.94
2023-11-02T01:48:04.918Z,99606.22
2023-11-02T01:50:34.934Z,99603.59
2023-11-02T01:53:20.542Z,99602.72
2023-11-02T01:56:08.725Z,99594.06
2023-11-02T01:58:54.396Z,99596.78
2023-11-02T02:01:28.495Z,99597.78
2023-11-02T02:03:57.861Z,99589.16
2023-11-02T02:06:25.952Z,99586.50
2023-11-02T02:09:00.650Z,99589.09
2023-11-02T02:11:48.528Z,99584.81
2023-11-02T02:14:15.251Z,99578.78
2023-11-02T02:16:50.723Z,99578.88
2023-11-02T02:19:20.462Z,99573.78
2023-11-02T02:21:52.205Z,99573.75
2023-11-02T02:24:28.081Z,99573.72
2023-11-02T02:26:54.908Z,99572.88
2023-11-02T02:29:48.944Z,99572.88
2023-11-02T02:32:15.554Z,99573.72
2023-11-02T02:34:42.175Z,99571.13
2023-11-02T02:37:18.625Z,99565.00
2023-11-02T02:39:51.311Z,99562.41
2023-11-02T02:42:18.540Z,99564.97
2023-11-02T02:44:46.509Z,99565.78
2023-11-02T02:47:13.249Z,99557.94
2023-11-02T02:49:43.830Z,99556.13
2023-11-02T02:52:13.481Z,99556.06
2023-11-02T02:54:41.305Z,99554.28
2023-11-02T02:57:10.115Z,99561.13
2023-11-02T02:59:38.440Z,99549.81
2023-11-02T03:02:08.349Z,99555.81
2023-11-02T03:04:35.697Z,99547.97
2023-11-02T03:07:03.553Z,99542.91
2023-11-02T03:09:31.410Z,99542.00
2023-11-02T03:12:04.425Z,99540.22
2023-11-02T03:14:33.878Z,99540.22
2023-11-02T03:17:10.975Z,99534.19
2023-11-02T03:19:43.065Z,99532.44
2023-11-02T03:22:10.678Z,99538.44
2023-11-02T03:24:38.995Z,99530.63
2023-11-02T03:27:07.301Z,99538.44
2023-11-02T03:29:42.988Z,99547.16
2023-11-02T03:32:12.614Z,99545.31
2023-11-02T03:34:42.429Z,99544.34
2023-11-02T03:37:12.423Z,99541.72
2023-11-02T03:39:57.800Z,99540.00
2023-11-02T03:42:24.478Z,99540.81
2023-11-02T03:45:12.561Z,99537.38
2023-11-02T03:48:01.673Z,99539.91
2023-11-02T03:50:47.219Z,99533.84
2023-11-02T03:53:25.009Z,99523.41
2023-11-02T03:56:01.065Z,99522.50
2023-11-02T03:58:40.136Z,99524.22
2023-11-02T04:01:16.802Z,99523.31
2023-11-02T04:03:47.428Z,99520.66
2023-11-02T04:06:16.655Z,99511.88
2023-11-02T04:08:44.327Z,99521.34
2023-11-02T04:11:22.136Z,99516.06
2023-11-02T04:13:50.074Z,99516.84
2023-11-02T04:16:16.787Z,99514.94
2023-11-02T04:18:43.528Z,99506.22
2023-11-02T04:21:11.729Z,99507.88
2023-11-02T04:23:38.517Z,99500.91
2023-11-02T04:26:08.361Z,99499.97
2023-11-02T04:28:35.040Z,99487.81
2023-11-02T04:31:06.455Z,99496.28
2023-11-02T04:33:33.184Z,99489.00
2023-11-02T04:36:00.165Z,99488.63
2023-11-02T04:38:26.838Z,99482.59
2023-11-02T04:40:55.292Z,99479.28
2023-11-02T04:43:21.987Z,99486.34
2023-11-02T04:45:50.960Z,99474.41
2023-11-02T04:48:22.137Z,99477.06
2023-11-02T04:50:53.787Z,99471.06
2023-11-02T04:53:25.971Z,99476.88
2023-11-02T04:55:52.737Z,99481.94
2023-11-02T04:58:19.539Z,99484.97
2023-11-02T05:00:48.707Z,99490.28
2023-11-02T05:03:15.626Z,99489.38
2023-11-02T05:05:45.147Z,99488.38
2023-11-02T05:08:14.456Z,99484.16
2023-11-02T05:10:41.189Z,99485.19
2023-11-02T05:13:10.136Z,99480.84
2023-11-02T05:15:54.106Z,99477.25
2023-11-02T05:18:23.417Z,99475.66
2023-11-02T05:20:52.017Z,99468.59
2023-11-02T05:23:18.795Z,99464.28
2023-11-02T05:25:45.905Z,99460.81
2023-11-02T05:28:12.556Z,99466.09
2023-11-02T05:30:40.819Z,99185.66
2023-11-02T05:33:10.204Z,99480.13
2023-11-02T05:35:39.374Z,99476.63
2023-11-02T05:38:09.028Z,99480.97
2023-11-02T05:40:35.687Z,99471.44
2023-11-02T05:43:02.459Z,99469.72
2023-11-02T05:45:29.179Z,99461.75
2023-11-02T05:47:55.962Z,99465.94
2023-11-02T05:50:22.863Z,99470.34
2023-11-02T05:52:49.522Z,99467.00
2023-11-02T05:55:16.309Z,99473.13
2023-11-02T05:57:43.333Z,99472.31
2023-11-02T06:00:12.462Z,99467.06
2023-11-02T06:02:40.036Z,99465.31
2023-11-02T06:05:07.194Z,99463.50
2023-11-02T06:07:41.518Z,99462.66
2023-11-02T06:10:10.410Z,99468.88
2023-11-02T06:12:37.247Z,99462.00
2023-11-02T06:15:06.864Z,99461.19
2023-11-02T06:17:38.132Z,99468.19
2023-11-02T06:20:07.789Z,99475.16
2023-11-02T06:22:34.810Z,99477.81
2023-11-02T06:25:04.009Z,99469.22
2023-11-02T06:27:30.768Z,99465.81
2023-11-02T06:29:57.751Z,99458.84
2023-11-02T06:32:26.948Z,99462.25
2023-11-02T06:35:02.019Z,99458.03
2023-11-02T06:37:30.785Z,99465.06
2023-11-02T06:39:57.615Z,99478.22
2023-11-02T06:42:28.602Z,99465.41
2023-11-02T06:44:57.881Z,99455.97
2023-11-02T06:47:27.132Z,99456.97
2023-11-02T06:49:54.513Z,99450.09
2023-11-02T06:52:21.141Z,99458.09
2023-11-02T06:54:47.890Z,99455.66
2023-11-02T06:57:16.897Z,99441.13
2023-11-02T06:59:44.081Z,99451.66
2023-11-02T07:02:12.766Z,99440.44
2023-11-02T07:04:41.874Z,99439.72
2023-11-02T07:07:11.060Z,99434.56
2023-11-02T07:09:40.164Z,99440.66
2023-11-02T07:12:13.311Z,99432.94
2023-11-02T07:14:45.721Z,99434.75
2023-11-02T07:17:13.282Z,99431.34
2023-11-02T07:19:39.967Z,99433.06
2023-11-02T07:22:07.018Z,99437.41
2023-11-02T07:24:33.772Z,99438.22
2023-11-02T07:27:03.101Z,99436.47
2023-11-02T07:29:29.760Z,99435.59
2023-11-02T07:31:56.397Z,99425.19
2023-11-02T07:34:23.113Z,99427.78
2023-11-02T07:36:50.846Z,99423.47
2023-11-02T07:39:19.953Z,99415.75
2023-11-02T07:41:46.675Z,99418.34
2023-11-02T07:44:18.699Z,99410.56
2023-11-02T07:46:45.693Z,99407.19
2023-11-02T07:49:12.832Z,99412.47
2023-11-02T07:51:39.611Z,99416.03
2023-11-02T07:54:08.747Z,99414.34
2023-11-02T07:56:35.410Z,99413.38
2023-11-02T07:59:04.293Z,99414.09
2023-11-02T08:01:33.306Z,99405.50
2023-11-02T08:04:03.606Z,99408.97
2023-11-02T08:06:33.836Z,99398.72
2023-11-02T08:09:00.690Z,99401.47
2023-11-02T08:11:29.631Z,99391.66
2023-11-02T08:13:57.887Z,99388.13
2023-11-02T08:16:27.506Z,99383.94
2023-11-02T08:18:54.134Z,99385.78
2023-11-02T08:21:23.553Z,99374.69
2023-11-02T08:23:53.183Z,99366.19
2023-11-02T08:26:26.010Z,99372.41
2023-11-02T08:28:53.228Z,99372.53
2023-11-02T08:31:26.411Z,99370.00
2023-11-02T08:33:53.423Z,99370.06
2023-11-02T08:36:20.825Z,99368.34
2023-11-02T08:38:50.376Z,99350.09
2023-11-02T08:41:31.423Z,99350.16
2023-11-02T08:44:00.236Z,99349.34
2023-11-02T08:46:27.383Z,99350.28
2023-11-02T08:48:57.153Z,99348.59
2023-11-02T08:51:28.792Z,99344.31
2023-11-02T08:53:56.011Z,99338.25
2023-11-02T08:56:25.123Z,99335.69
2023-11-02T08:58:52.595Z,99336.59
2023-11-02T09:01:20.070Z,99330.50
2023-11-02T09:03:46.726Z,99326.16
2023-11-02T09:06:15.603Z,99321.84
2023-11-02T09:08:42.308Z,99315.75
2023-11-02T09:11:09.324Z,99319.22
2023-11-02T09:13:38.327Z,99320.06
2023-11-02T09:16:10.307Z,99308.78
2023-11-02T09:18:37.097Z,99310.50
2023-11-02T09:21:05.727Z,99298.25
2023-11-02T09:23:35.920Z,99297.38
2023-11-02T09:26:03.365Z,99302.63
2023-11-02T09:28:29.990Z,99299.16
2023-11-02T09:30:59.299Z,99297.38
2023-11-02T09:33:26.189Z,99297.34
2023-11-02T09:35:52.975Z,99290.34
2023-11-02T09:38:20.804Z,99285.91
2023-11-02T09:40:49.936Z,99273.69
2023-11-02T09:43:21.075Z,99264.00
2023-11-02T09:45:47.858Z,99254.38
2023-11-02T09:48:14.640Z,99249.00
2023-11-02T09:50:43.769Z,99235.84
2023-11-02T09:53:13.026Z,99227.88
2023-11-02T09:55:40.484Z,99224.31
2023-11-02T09:58:10.854Z,99218.13
2023-11-02T10:00:38.148Z,99215.31
2023-11-02T10:03:04.989Z,99205.56
2023-11-02T10:05:34.484Z,99200.19
2023-11-02T10:08:01.284Z,99192.94
2023-11-02T10:10:32.218Z,99189.34
2023-11-02T10:12:59.956Z,99184.78
2023-11-02T10:15:26.714Z,99188.91
2023-11-02T10:17:53.480Z,99185.09
2023-11-02T10:20:20.440Z,99172.59
2023-11-02T10:23:11.043Z,99168.88
2023-11-02T10:25:42.664Z,99163.47
2023-11-02T10:28:11.975Z,99153.44
2023-11-02T10:30:38.955Z,99145.91
2023-11-02T10:33:08.898Z,99146.78
2023-11-02T10:35:38.766Z,99147.75
2023-11-02T10:38:08.182Z,99147.50
2023-11-02T10:40:41.882Z,99138.44
2023-11-02T10:43:10.894Z,99143.13
2023-11-02T10:45:37.732Z,99132.88
2023-11-02T10:48:04.490Z,99129.41
2023-11-02T10:50:31.137Z,99033.22
2023-11-02T10:53:02.762Z,99108.41
2023-11-02T10:55:42.068Z,99114.72
2023-11-02T10:58:08.813Z,99106.22
2023-11-02T11:00:35.676Z,99094.66
2023-11-02T11:03:08.199Z,99093.16
2023-11-02T11:05:36.680Z,99086.16
2023-11-02T11:08:05.597Z,99090.97
2023-11-02T11:10:32.341Z,99086.97
2023-11-02T11:13:02.050Z,99076.16
2023-11-02T11:15:29.071Z,99076.50
2023-11-02T11:17:57.370Z,99069.03
2023-11-02T11:20:29.388Z,99054.09
2023-11-02T11:22:56.091Z,99046.66
2023-11-02T11:25:25.215Z,99048.66
2023-11-02T11:27:54.353Z,99050.78
2023-11-02T11:30:21.093Z,99042.47
2023-11-02T11:32:48.957Z,99038.75
2023-11-02T11:35:18.257Z,99022.22
2023-11-02T11:37:59.228Z,99016.69
2023-11-02T11:40:26.380Z,99011.16
2023-11-02T11:42:53.393Z,99008.88
2023-11-02T11:45:25.270Z,99004.75
2023-11-02T11:47:52.089Z,99000.69
2023-11-02T11:50:30.715Z,98998.81
2023-11-02T11:53:16.812Z,98993.34
2023-11-02T11:55:46.280Z,98968.50
2023-11-02T11:58:15.867Z,98974.25
2023-11-02T12:00:55.334Z,98959.53
2023-11-02T12:03:38.201Z,98964.91
2023-11-02T12:06:12.410Z,98962.69
2023-11-02T12:08:45.582Z,98956.25
2023-11-02T12:11:15.418Z,98939.53
2023-11-02T12:13:56.416Z,98943.88
2023-11-02T12:16:23.243Z,98927.97
2023-11-02T12:18:53.398Z,98930.34
2023-11-02T12:21:21.432Z,98921.56
2023-11-02T12:23:48.535Z,98904.25
2023-11-02T12:26:23.371Z,98899.91
2023-11-02T12:28:53.980Z,98894.00
2023-11-02T12:31:28.414Z,98892.28
2023-11-02T12:33:55.446Z,98883.97
2023-11-02T12:36:24.823Z,98878.50
2023-11-02T12:38:52.926Z,98881.75
2023-11-02T12:41:29.776Z,98885.69
2023-11-02T12:44:08.444Z,98887.00
2023-11-02T12:46:35.854Z,98877.78
2023-11-02T12:49:12.967Z,98885.13
2023-11-02T12:51:40.317Z,98879.84
2023-11-02T12:54:10.622Z,98896.66
2023-11-02T12:56:37.274Z,98897.34
2023-11-02T12:59:08.361Z,98893.53
2023-11-02T13:01:54.622Z,98881.88
2023-11-02T13:04:24.526Z,98878.03
2023-11-02T13:06:52.318Z,98869.25
2023-11-02T13:09:20.402Z,98878.94
2023-11-02T13:11:49.148Z,98867.91
2023-11-02T13:14:20.376Z,98868.50
2023-11-02T13:16:51.696Z,98865.09
2023-11-02T13:19:19.075Z,98860.31
2023-11-02T13:21:51.354Z,98848.53
2023-11-02T13:24:21.255Z,98839.16
2023-11-02T13:26:50.293Z,98831.47
2023-11-02T13:29:23.067Z,98832.84
2023-11-02T13:31:49.982Z,98813.09
2023-11-02T13:34:20.139Z,98816.53
2023-11-02T13:36:47.836Z,98812.50
2023-11-02T13:39:14.709Z,98796.06
2023-11-02T13:41:44.466Z,98798.47
2023-11-02T13:44:11.295Z,98795.44
2023-11-02T13:46:43.409Z,98791.69
2023-11-02T13:49:12.541Z,98796.31
2023-11-02T13:51:39.421Z,98804.03
2023-11-02T13:54:08.676Z,98809.84
2023-11-02T13:56:37.783Z,98804.16
2023-11-02T13:59:04.536Z,98805.41
2023-11-02T14:01:33.169Z,98808.41
2023-11-02T14:04:05.054Z,98802.94
2023-11-02T14:06:34.905Z,98801.34
2023-11-02T14:09:04.612Z,98790.75
2023-11-02T14:11:33.977Z,98798.88
2023-11-02T14:14:01.596Z,98793.41
2023-11-02T14:16:28.537Z,98792.75
2023-11-02T14:18:55.272Z,98784.72
2023-11-02T14:21:22.115Z,98773.72
2023-11-02T14:23:48.860Z,98768.59
2023-11-02T14:26:15.603Z,98755.81
2023-11-02T14:28:42.596Z,98754.56
2023-11-02T14:31:09.782Z,98747.13
2023-11-02T14:33:36.599Z,98756.31
2023-11-02T14:36:06.300Z,98756.50
2023-11-02T14:38:33.867Z,98748.97
2023-11-02T14:41:00.682Z,98755.34
2023-11-02T14:43:27.357Z,98763.50
2023-11-02T14:45:53.999Z,98759.56
2023-11-02T14:48:23.491Z,98747.47
2023-11-02T14:50:52.672Z,98745.91
2023-11-02T14:53:19.439Z,98751.41
2023-11-02T14:55:46.070Z,98765.59
2023-11-02T14:58:15.202Z,98775.38
2023-11-02T15:00:45.847Z,98764.38
2023-11-02T15:03:12.805Z,98754.13
2023-11-02T15:05:39.966Z,98764.91
2023-11-02T15:08:06.744Z,98758.97
2023-11-02T15:10:35.682Z,98760.91
2023-11-02T15:13:04.459Z,98776.69
2023-11-02T15:15:33.618Z,98784.69
2023-11-02T15:18:00.439Z,98783.28
2023-11-02T15:20:27.160Z,98783.38
2023-11-02T15:22:56.606Z,98780.94
2023-11-02T15:25:23.461Z,98779.38
2023-11-02T15:27:52.649Z,98774.22
2023-11-02T15:30:24.283Z,98766.50
2023-11-02T15:32:51.100Z,98763.06
2023-11-02T15:35:18.121Z,98756.94
2023-11-02T15:37:45.400Z,98759.75
2023-11-02T15:40:12.781Z,98763.22
2023-11-02T15:42:39.773Z,98743.16
2023-11-02T15:45:09.457Z,98744.00
2023-11-02T15:47:36.712Z,98764.97
2023-11-02T15:50:04.804Z,98771.13
2023-11-02T15:52:37.700Z,98763.38
2023-11-02T15:55:06.842Z,98771.28
2023-11-02T15:57:34.196Z,98778.28
2023-11-02T16:00:01.079Z,98781.06
2023-11-02T16:02:27.709Z,98775.13
2023-11-02T16:04:56.909Z,98783.06
2023-11-02T16:07:26.283Z,98782.97
2023-11-02T16:09:53.042Z,98777.78
2023-11-02T16:12:22.125Z,98783.06
2023-11-02T16:14:48.805Z,98778.75
2023-11-02T16:17:15.414Z,98782.38
2023-11-02T16:19:42.141Z,98781.50
2023-11-02T16:22:08.913Z,98788.56
2023-11-02T16:24:36.036Z,98784.19
2023-11-02T16:27:02.744Z,98791.28
2023-11-02T16:29:29.321Z,98788.69
2023-11-02T16:31:57.442Z,98786.03
2023-11-02T16:34:34.627Z,98787.84
2023-11-02T16:37:06.592Z,98782.50
2023-11-02T16:39:34.514Z,98785.03
2023-11-02T16:42:02.909Z,98777.91
2023-11-02T16:44:32.730Z,98782.19
2023-11-02T16:47:00.543Z,98783.94
2023-11-02T16:49:28.387Z,98781.31
2023-11-02T16:51:57.658Z,98779.56
2023-11-02T16:54:25.631Z,98780.34
2023-11-02T16:56:52.675Z,98773.31
2023-11-02T16:59:20.179Z,98766.25
2023-11-02T17:01:47.632Z,98756.53
2023-11-02T17:04:14.963Z,98758.13
2023-11-02T17:06:41.862Z,98747.59
2023-11-02T17:09:10.495Z,98739.81
2023-11-02T17:11:37.587Z,98735.56
2023-11-02T17:14:06.920Z,98729.53
2023-11-02T17:16:33.691Z,98722.59
2023-11-02T17:19:01.046Z,98706.16
2023-11-02T17:21:28.024Z,98700.16
2023-11-02T17:23:55.275Z,98702.91
2023-11-02T17:26:21.950Z,98699.50
2023-11-02T17:28:48.793Z,98694.22
2023-11-02T17:31:15.698Z,98688.16
2023-11-02T17:33:45.575Z,98688.19
2023-11-02T17:36:12.690Z,98672.50
2023-11-02T17:38:44.228Z,98677.75
2023-11-02T17:41:10.872Z,98680.31
2023-11-02T17:43:42.924Z,98668.09
2023-11-02T17:46:09.557Z,98675.09
2023-11-02T17:48:36.375Z,98676.75
2023-11-02T17:51:06.529Z,98668.94
2023-11-02T17:53:33.661Z,98664.56
2023-11-02T17:56:00.419Z,98660.97
2023-11-02T17:58:29.710Z,98666.22
2023-11-02T18:00:57.980Z,98662.81
2023-11-02T18:03:24.748Z,98655.00
2023-11-02T18:05:52.649Z,98655.06
2023-11-02T18:08:25.527Z,98659.59
2023-11-02T18:10:52.285Z,98653.66
2023-11-02T18:13:19.037Z,98655.47
2023-11-02T18:15:50.688Z,98645.94
2023-11-02T18:18:20.059Z,98647.59
2023-11-02T18:20:49.093Z,98643.13
2023-11-02T18:23:18.290Z,98630.03
2023-11-02T18:25:47.631Z,98634.34
2023-11-02T18:28:14.309Z,98626.41
2023-11-02T18:30:41.039Z,98631.69
2023-11-02T18:33:10.898Z,98633.47
2023-11-02T18:35:37.750Z,98644.03
2023-11-02T18:38:04.506Z,98633.59
2023-11-02T18:40:31.836Z,98624.16
2023-11-02T18:42:58.634Z,98632.91
2023-11-02T18:45:25.390Z,98629.47
2023-11-02T18:47:53.038Z,98630.41
2023-11-02T18:50:22.816Z,98626.13
2023-11-02T18:52:54.463Z,98620.97
2023-11-02T18:55:21.621Z,98622.69
2023-11-02T18:57:48.408Z,98620.94
2023-11-02T19:00:20.302Z,98620.16
2023-11-02T19:02:51.142Z,98624.41
2023-11-02T19:05:18.074Z,98613.09
2023-11-02T19:07:47.505Z,98609.63
2023-11-02T19:10:14.375Z,98608.72
2023-11-02T19:12:41.107Z,98600.84
2023-11-02T19:15:11.377Z,98601.72
2023-11-02T19:17:38.020Z,98592.16
2023-11-02T19:20:05.371Z,98597.38
2023-11-02T19:22:34.938Z,98593.88
2023-11-02T19:25:04.128Z,98593.00
2023-11-02T19:27:34.154Z,98581.75
2023-11-02T19:30:03.680Z,98590.38
2023-11-02T19:32:34.266Z,98583.31
2023-11-02T19:35:00.993Z,98580.78
2023-11-02T19:37:29.986Z,98570.38
2023-11-02T19:39:57.191Z,98584.50
2023-11-02T19:42:24.886Z,98578.34
2023-11-02T19:44:51.605Z,98577.69
2023-11-02T19:47:18.624Z,98575.13
2023-11-02T19:49:47.647Z,98576.19
2023-11-02T19:52:14.323Z,98570.84
2023-11-02T19:54:41.545Z,98560.53
2023-11-02T19:57:10.355Z,98560.53
2023-11-02T19:59:37.216Z,98563.91
2023-11-02T20:02:06.296Z,98549.94
2023-11-02T20:04:35.104Z,98550.69
2023-11-02T20:07:01.947Z,98541.88
2023-11-02T20:09:29.698Z,98542.84
2023-11-02T20:11:56.394Z,98534.94
2023-11-02T20:14:23.518Z,98520.94
2023-11-02T20:16:50.158Z,98520.91
2023-11-02T20:19:16.872Z,98514.72
2023-11-02T20:21:47.244Z,98513.13
2023-11-02T20:24:16.373Z,98503.50
2023-11-02T20:26:43.059Z,98504.47
2023-11-02T20:29:09.754Z,98501.09
2023-11-02T20:31:38.904Z,98497.63
2023-11-02T20:34:05.692Z,98491.59
2023-11-02T20:36:34.789Z,98487.31
2023-11-02T20:39:01.449Z,98489.06
2023-11-02T20:41:28.032Z,98490.03
2023-11-02T20:43:54.667Z,98486.66
2023-11-02T20:46:21.322Z,98479.81
2023-11-02T20:48:48.377Z,98472.06
2023-11-02T20:51:15.485Z,98467.78
2023-11-02T20:53:42.259Z,98457.34
2023-11-02T20:56:11.440Z,98458.22
2023-11-02T20:58:40.663Z,98457.47
2023-11-02T21:01:07.425Z,98449.72
2023-11-02T21:03:34.297Z,98440.13
2023-11-02T21:06:04.659Z,98436.84
2023-11-02T21:08:33.979Z,98437.69
2023-11-02T21:11:02.298Z,98443.78
2023-11-02T21:13:29.368Z,98445.53
2023-11-02T21:15:56.185Z,98449.16
2023-11-02T21:18:25.562Z,98448.38
2023-11-02T21:20:54.738Z,98438.75
2023-11-02T21:23:24.043Z,98437.81
2023-11-02T21:25:50.872Z,98434.31
2023-11-02T21:28:18.672Z,98430.91
2023-11-02T21:30:47.845Z,98431.06
2023-11-02T21:33:16.956Z,98430.16
2023-11-02T21:35:43.616Z,98424.06
2023-11-02T21:38:10.260Z,98406.72
2023-11-02T21:40:39.626Z,98398.91
2023-11-02T21:43:06.391Z,98383.22
2023-11-02T21:45:35.530Z,98387.56
2023-11-02T21:48:04.628Z,98395.44
2023-11-02T21:50:31.441Z,98398.91
2023-11-02T21:53:01.260Z,98406.91
2023-11-02T21:55:32.385Z,98402.59
2023-11-02T21:57:59.078Z,98398.53
2023-11-02T22:00:25.802Z,98380.34
2023-11-02T22:02:52.530Z,98382.03
2023-11-02T22:05:19.458Z,98378.53
2023-11-02T22:07:46.220Z,98359.31
2023-11-02T22:10:12.888Z,98352.38
2023-11-02T22:12:41.899Z,98365.25
2023-11-02T22:15:11.200Z,98357.34
2023-11-02T22:17:37.843Z,98362.78
2023-11-02T22:20:06.195Z,98369.63
2023-11-02T22:22:33.170Z,98376.00
2023-11-02T22:24:59.873Z,98375.03
2023-11-02T22:27:27.631Z,98383.66
2023-11-02T22:29:54.275Z,98390.66
2023-11-02T22:32:20.895Z,98401.81
2023-11-02T22:34:50.635Z,98405.50
2023-11-02T22:37:17.492Z,98396.72
2023-11-02T22:39:44.207Z,98395.75
2023-11-02T22:42:13.242Z,98397.38
2023-11-02T22:44:41.489Z,98401.75
2023-11-02T22:47:10.640Z,98406.00
2023-11-02T22:49:37.241Z,98394.66
2023-11-02T22:52:10.514Z,98387.59
2023-11-02T22:54:37.941Z,98368.47
2023-11-02T22:57:07.953Z,98360.59
2023-11-02T22:59:37.412Z,98351.94
2023-11-02T23:02:06.498Z,98339.88
2023-11-02T23:04:35.638Z,98335.59
2023-11-02T23:07:02.391Z,98349.56
2023-11-02T23:09:31.660Z,98362.59
2023-11-02T23:11:59.222Z,98352.06
2023-11-02T23:14:31.377Z,98351.97
2023-11-02T23:16:58.010Z,98351.03
2023-11-02T23:19:27.597Z,98345.00
2023-11-02T23:21:56.809Z,98358.09
2023-11-02T23:24:23.393Z,98341.63
2023-11-02T23:26:52.843Z,98335.53
2023-11-02T23:29:19.472Z,98340.88
2023-11-02T23:31:46.157Z,98341.81
2023-11-02T23:34:12.898Z,98327.91
2023-11-02T23:36:39.569Z,98319.34
2023-11-02T23:39:08.805Z,98321.09
2023-11-02T23:41:36.116Z,98322.19
2023-11-02T23:44:02.953Z,98316.09
2023-11-02T23:46:29.910Z,98329.19
2023-11-02T23:48:59.545Z,98324.03
2023-11-02T23:51:28.587Z,98319.63
2023-11-02T23:53:55.309Z,98314.34
2023-11-02T23:56:24.238Z,98308.28
2023-11-02T23:58:50.887Z,98299.59
